Estesun — 3ETK8 — position and weather

sailwx.info

Track history (hours):
 
Tides and Currents Weather Stations Pressure Air Temp Water Temp Dewpoint Dewpoint Depression Visibility Wind Speed Wind Dir Waves Ship Positions

Estesun

Last reported at 2018-Jun-09 01:21 UTC. Time now 2018-Jun-25 00:44 UTC.
Position N 36°27' E 015°04'.
Warning: this ship's position is 15 days out of date.

Length 136 m; draft 6.1 m.

Type: Cargo ship. MMSI: 370596000.

Date/timePositionNaut miles runAvg speedWind from/ knotsBaromVisibWave heightAir tempDewpointWater temp
2018-Jun-09 01:21N 36°27' E 015°04'510.1
2018-Jun-09 00:51N 36°27' E 014°58'410.1
2018-Jun-09 00:30N 36°27' E 014°54'510.1
2018-Jun-08 23:59N 36°27' E 014°47'5 9.9
2018-Jun-08 23:30N 36°27' E 014°41'510.0
2018-Jun-08 23:00N 36°28' E 014°35'510.0
2018-Jun-08 22:30N 36°30' E 014°29'510.2
2018-Jun-08 22:00N 36°31' E 014°23'510.3
2018-Jun-08 21:30N 36°33' E 014°17'510.3
2018-Jun-08 20:59N 36°35' E 014°11'510.1
2018-Jun-08 20:30N 36°36' E 014°05'1210.4
2018-Jun-08 19:22N 36°39' E 013°51'410.5
2018-Jun-08 18:59N 36°40' E 013°46'610.6
2018-Jun-08 18:25N 36°42' E 013°39'410.5
2018-Jun-08 18:00N 36°44' E 013°34'510.1
2018-Jun-08 17:30N 36°46' E 013°28'5 9.9
2018-Jun-08 17:00N 36°47' E 013°22'  
2018-Jun-06 04:39N 37°29' E 000°34'210.1
2018-Jun-06 04:28N 37°29' E 000°31'510.2
2018-Jun-06 04:00N 37°29' E 000°26'610.3
2018-Jun-06 03:26N 37°29' E 000°18'610.5
2018-Jun-06 02:51N 37°29' E 000°10'410.6
2018-Jun-06 02:30N 37°29' E 000°06'510.5
2018-Jun-06 02:00N 37°28' W 000°01'510.3
2018-Jun-06 01:29N 37°28' W 000°08'510.5
2018-Jun-06 00:59N 37°29' W 000°14'510.3
2018-Jun-06 00:30N 37°29' W 000°20'510.2
2018-Jun-06 00:00N 37°29' W 000°27'510.3
2018-Jun-05 23:30N 37°29' W 000°33'510.7
2018-Jun-05 23:00N 37°29' W 000°40'611.3
2018-Jun-05 22:29N 37°30' W 000°47'  
2018-May-31 10:30N 37°32' W 000°53'5 9.9
2018-May-31 10:00N 37°32' W 000°46'5 9.8
2018-May-31 09:29N 37°33' W 000°40'510.3
2018-May-31 09:00N 37°34' W 000°34'510.7
2018-May-31 08:30N 37°39' W 000°30'610.9
2018-May-31 08:00N 37°43' W 000°27'510.9
2018-May-31 07:30N 37°48' W 000°23'611.1
2018-May-31 07:00N 37°52' W 000°19'611.0
2018-May-31 06:30N 37°57' W 000°15'510.9
2018-May-31 06:00N 38°01' W 000°11'510.8
2018-May-31 05:30N 38°06' W 000°07'611.0
2018-May-31 05:00N 38°11' W 000°04'1111.3
2018-May-31 03:59N 38°20' E 000°04'611.4
2018-May-31 03:30N 38°25' E 000°08'  
Track history (hours):
 
Tides and Currents Weather Stations Pressure Air Temp Water Temp Dewpoint Dewpoint Depression Visibility Wind Speed Wind Dir Waves Ship Positions

Estesun

Last reported at 2018-Jun-09 01:21 UTC. Time now 2018-Jun-25 00:44 UTC.
Position N 36°27' E 015°04'.
Warning: this ship's position is 15 days out of date.

Length 136 m; draft 6.1 m.

Type: Cargo ship. MMSI: 370596000.

Date/timePositionNaut miles runAvg speedWind from/ knotsBaromVisibWave heightAir tempDewpointWater temp
2018-Jun-09 01:21N 36°27' E 015°04'510.1
2018-Jun-09 00:51N 36°27' E 014°58'410.1
2018-Jun-09 00:30N 36°27' E 014°54'510.1
2018-Jun-08 23:59N 36°27' E 014°47'5 9.9
2018-Jun-08 23:30N 36°27' E 014°41'510.0
2018-Jun-08 23:00N 36°28' E 014°35'510.0
2018-Jun-08 22:30N 36°30' E 014°29'510.2
2018-Jun-08 22:00N 36°31' E 014°23'510.3
2018-Jun-08 21:30N 36°33' E 014°17'510.3
2018-Jun-08 20:59N 36°35' E 014°11'510.1
2018-Jun-08 20:30N 36°36' E 014°05'1210.4
2018-Jun-08 19:22N 36°39' E 013°51'410.5
2018-Jun-08 18:59N 36°40' E 013°46'610.6
2018-Jun-08 18:25N 36°42' E 013°39'410.5
2018-Jun-08 18:00N 36°44' E 013°34'510.1
2018-Jun-08 17:30N 36°46' E 013°28'5 9.9
2018-Jun-08 17:00N 36°47' E 013°22'  
2018-Jun-06 04:39N 37°29' E 000°34'210.1
2018-Jun-06 04:28N 37°29' E 000°31'510.2
2018-Jun-06 04:00N 37°29' E 000°26'610.3
2018-Jun-06 03:26N 37°29' E 000°18'610.5
2018-Jun-06 02:51N 37°29' E 000°10'410.6
2018-Jun-06 02:30N 37°29' E 000°06'510.5
2018-Jun-06 02:00N 37°28' W 000°01'510.3
2018-Jun-06 01:29N 37°28' W 000°08'510.5
2018-Jun-06 00:59N 37°29' W 000°14'510.3
2018-Jun-06 00:30N 37°29' W 000°20'510.2
2018-Jun-06 00:00N 37°29' W 000°27'510.3
2018-Jun-05 23:30N 37°29' W 000°33'510.7
2018-Jun-05 23:00N 37°29' W 000°40'611.3
2018-Jun-05 22:29N 37°30' W 000°47'  
2018-May-31 10:30N 37°32' W 000°53'5 9.9
2018-May-31 10:00N 37°32' W 000°46'5 9.8
2018-May-31 09:29N 37°33' W 000°40'510.3
2018-May-31 09:00N 37°34' W 000°34'510.7
2018-May-31 08:30N 37°39' W 000°30'610.9
2018-May-31 08:00N 37°43' W 000°27'510.9
2018-May-31 07:30N 37°48' W 000°23'611.1
2018-May-31 07:00N 37°52' W 000°19'611.0
2018-May-31 06:30N 37°57' W 000°15'510.9
2018-May-31 06:00N 38°01' W 000°11'510.8
2018-May-31 05:30N 38°06' W 000°07'611.0
2018-May-31 05:00N 38°11' W 000°04'1111.3
2018-May-31 03:59N 38°20' E 000°04'611.4
2018-May-31 03:30N 38°25' E 000°08'  

Dump ship's entire track history